sensor_id;sensor_type;location;lat;lon;timestamp;P1;durP1;ratioP1;P2;durP2;ratioP2
59756;SDS011;45631;51.962;5.974;2022-07-10T00:00:45;7.82;;;1.70;;
59756;SDS011;45631;51.962;5.974;2022-07-10T00:03:13;6.97;;;1.83;;
59756;SDS011;45631;51.962;5.974;2022-07-10T00:05:41;6.07;;;1.25;;
59756;SDS011;45631;51.962;5.974;2022-07-10T00:08:09;4.68;;;1.20;;
59756;SDS011;45631;51.962;5.974;2022-07-10T00:10:39;5.72;;;1.45;;
59756;SDS011;45631;51.962;5.974;2022-07-10T00:13:07;5.35;;;1.20;;
59756;SDS011;45631;51.962;5.974;2022-07-10T00:15:35;7.20;;;1.50;;
59756;SDS011;45631;51.962;5.974;2022-07-10T00:18:03;6.32;;;1.48;;
59756;SDS011;45631;51.962;5.974;2022-07-10T00:20:31;6.50;;;1.17;;
59756;SDS011;45631;51.962;5.974;2022-07-10T00:23:00;7.15;;;1.20;;
59756;SDS011;45631;51.962;5.974;2022-07-10T00:25:28;8.30;;;1.35;;
59756;SDS011;45631;51.962;5.974;2022-07-10T00:27:58;4.25;;;1.05;;
59756;SDS011;45631;51.962;5.974;2022-07-10T00:30:26;5.32;;;1.13;;
59756;SDS011;45631;51.962;5.974;2022-07-10T00:32:55;7.22;;;1.30;;
59756;SDS011;45631;51.962;5.974;2022-07-10T00:35:23;5.10;;;1.05;;
59756;SDS011;45631;51.962;5.974;2022-07-10T00:37:51;9.38;;;1.52;;
59756;SDS011;45631;51.962;5.974;2022-07-10T00:40:19;7.55;;;1.50;;
59756;SDS011;45631;51.962;5.974;2022-07-10T00:42:47;6.68;;;1.20;;
59756;SDS011;45631;51.962;5.974;2022-07-10T00:45:17;6.60;;;1.45;;
59756;SDS011;45631;51.962;5.974;2022-07-10T00:47:45;5.88;;;1.42;;
59756;SDS011;45631;51.962;5.974;2022-07-10T00:50:13;7.20;;;1.65;;
59756;SDS011;45631;51.962;5.974;2022-07-10T00:52:41;5.40;;;1.10;;
59756;SDS011;45631;51.962;5.974;2022-07-10T00:55:09;6.82;;;1.35;;
59756;SDS011;45631;51.962;5.974;2022-07-10T00:57:37;7.80;;;1.13;;
59756;SDS011;45631;51.962;5.974;2022-07-10T01:00:07;4.88;;;1.25;;
59756;SDS011;45631;51.962;5.974;2022-07-10T01:02:39;6.68;;;1.38;;
59756;SDS011;45631;51.962;5.974;2022-07-10T01:05:10;6.15;;;1.42;;
59756;SDS011;45631;51.962;5.974;2022-07-10T01:07:38;6.07;;;1.23;;
59756;SDS011;45631;51.962;5.974;2022-07-10T01:10:07;6.13;;;1.30;;
59756;SDS011;45631;51.962;5.974;2022-07-10T01:12:35;5.13;;;1.50;;
59756;SDS011;45631;51.962;5.974;2022-07-10T01:15:04;7.13;;;1.25;;
59756;SDS011;45631;51.962;5.974;2022-07-10T01:17:33;3.92;;;1.30;;
59756;SDS011;45631;51.962;5.974;2022-07-10T01:20:05;6.07;;;1.30;;
59756;SDS011;45631;51.962;5.974;2022-07-10T01:22:35;5.55;;;1.15;;
59756;SDS011;45631;51.962;5.974;2022-07-10T01:25:05;7.47;;;1.42;;
59756;SDS011;45631;51.962;5.974;2022-07-10T01:27:33;7.72;;;1.38;;
59756;SDS011;45631;51.962;5.974;2022-07-10T01:30:02;5.47;;;1.33;;
59756;SDS011;45631;51.962;5.974;2022-07-10T01:32:36;8.45;;;1.30;;
59756;SDS011;45631;51.962;5.974;2022-07-10T01:35:05;5.80;;;1.30;;
59756;SDS011;45631;51.962;5.974;2022-07-10T01:37:33;8.57;;;1.50;;
59756;SDS011;45631;51.962;5.974;2022-07-10T01:40:03;10.88;;;2.10;;
59756;SDS011;45631;51.962;5.974;2022-07-10T01:42:32;7.65;;;1.38;;
59756;SDS011;45631;51.962;5.974;2022-07-10T01:45:00;4.55;;;1.40;;
59756;SDS011;45631;51.962;5.974;2022-07-10T01:47:32;4.05;;;1.27;;
59756;SDS011;45631;51.962;5.974;2022-07-10T01:50:00;8.20;;;1.40;;
59756;SDS011;45631;51.962;5.974;2022-07-10T01:52:29;9.80;;;1.70;;
59756;SDS011;45631;51.962;5.974;2022-07-10T01:54:57;7.30;;;1.92;;
59756;SDS011;45631;51.962;5.974;2022-07-10T01:57:26;4.72;;;1.30;;
59756;SDS011;45631;51.962;5.974;2022-07-10T01:59:54;10.18;;;1.85;;
59756;SDS011;45631;51.962;5.974;2022-07-10T02:02:22;4.53;;;1.30;;
59756;SDS011;45631;51.962;5.974;2022-07-10T02:04:51;9.15;;;1.52;;
59756;SDS011;45631;51.962;5.974;2022-07-10T02:07:18;7.00;;;1.25;;
59756;SDS011;45631;51.962;5.974;2022-07-10T02:09:48;5.82;;;1.40;;
59756;SDS011;45631;51.962;5.974;2022-07-10T02:12:16;4.75;;;1.30;;
59756;SDS011;45631;51.962;5.974;2022-07-10T02:14:46;5.05;;;1.40;;
59756;SDS011;45631;51.962;5.974;2022-07-10T02:17:14;8.77;;;1.73;;
59756;SDS011;45631;51.962;5.974;2022-07-10T02:19:42;8.10;;;1.30;;
59756;SDS011;45631;51.962;5.974;2022-07-10T02:22:10;6.00;;;1.48;;
59756;SDS011;45631;51.962;5.974;2022-07-10T02:24:38;6.30;;;1.48;;
59756;SDS011;45631;51.962;5.974;2022-07-10T02:27:06;8.07;;;1.33;;
59756;SDS011;45631;51.962;5.974;2022-07-10T02:29:34;6.45;;;1.40;;
59756;SDS011;45631;51.962;5.974;2022-07-10T02:32:06;5.10;;;1.20;;
59756;SDS011;45631;51.962;5.974;2022-07-10T02:34:34;7.38;;;1.48;;
59756;SDS011;45631;51.962;5.974;2022-07-10T02:37:02;6.38;;;1.33;;
59756;SDS011;45631;51.962;5.974;2022-07-10T02:39:31;7.72;;;1.27;;
59756;SDS011;45631;51.962;5.974;2022-07-10T02:41:59;8.15;;;1.50;;
59756;SDS011;45631;51.962;5.974;2022-07-10T02:44:27;5.75;;;1.67;;
59756;SDS011;45631;51.962;5.974;2022-07-10T02:46:55;5.20;;;1.00;;
59756;SDS011;45631;51.962;5.974;2022-07-10T02:49:25;5.65;;;1.40;;
59756;SDS011;45631;51.962;5.974;2022-07-10T02:51:53;6.75;;;1.27;;
59756;SDS011;45631;51.962;5.974;2022-07-10T02:54:21;7.50;;;1.30;;
59756;SDS011;45631;51.962;5.974;2022-07-10T02:56:49;11.77;;;1.70;;
59756;SDS011;45631;51.962;5.974;2022-07-10T02:59:17;8.07;;;1.65;;
59756;SDS011;45631;51.962;5.974;2022-07-10T03:01:45;3.55;;;1.02;;
59756;SDS011;45631;51.962;5.974;2022-07-10T03:04:13;6.88;;;1.17;;
59756;SDS011;45631;51.962;5.974;2022-07-10T03:06:43;6.68;;;1.60;;
59756;SDS011;45631;51.962;5.974;2022-07-10T03:09:11;6.68;;;1.58;;
59756;SDS011;45631;51.962;5.974;2022-07-10T03:11:39;7.40;;;1.50;;
59756;SDS011;45631;51.962;5.974;2022-07-10T03:14:07;5.60;;;1.50;;
59756;SDS011;45631;51.962;5.974;2022-07-10T03:16:35;8.57;;;1.77;;
59756;SDS011;45631;51.962;5.974;2022-07-10T03:19:03;8.63;;;1.60;;
59756;SDS011;45631;51.962;5.974;2022-07-10T03:21:31;7.35;;;1.83;;
59756;SDS011;45631;51.962;5.974;2022-07-10T03:24:00;6.10;;;1.60;;
59756;SDS011;45631;51.962;5.974;2022-07-10T03:26:28;6.28;;;1.52;;
59756;SDS011;45631;51.962;5.974;2022-07-10T03:28:56;6.60;;;1.33;;
59756;SDS011;45631;51.962;5.974;2022-07-10T03:31:25;6.53;;;1.58;;
59756;SDS011;45631;51.962;5.974;2022-07-10T03:33:53;5.68;;;1.33;;
59756;SDS011;45631;51.962;5.974;2022-07-10T03:36:21;6.50;;;1.40;;
59756;SDS011;45631;51.962;5.974;2022-07-10T03:38:49;5.75;;;1.35;;
59756;SDS011;45631;51.962;5.974;2022-07-10T03:41:19;10.35;;;1.92;;
59756;SDS011;45631;51.962;5.974;2022-07-10T03:43:47;6.60;;;1.40;;
59756;SDS011;45631;51.962;5.974;2022-07-10T03:46:15;5.80;;;1.33;;
59756;SDS011;45631;51.962;5.974;2022-07-10T03:48:43;8.35;;;2.03;;
59756;SDS011;45631;51.962;5.974;2022-07-10T03:51:11;4.40;;;1.40;;
59756;SDS011;45631;51.962;5.974;2022-07-10T03:53:39;7.93;;;1.48;;
59756;SDS011;45631;51.962;5.974;2022-07-10T03:56:07;7.55;;;1.75;;
59756;SDS011;45631;51.962;5.974;2022-07-10T03:58:57;5.93;;;1.63;;
59756;SDS011;45631;51.962;5.974;2022-07-10T04:01:24;7.57;;;1.42;;
59756;SDS011;45631;51.962;5.974;2022-07-10T04:03:52;9.27;;;1.88;;
59756;SDS011;45631;51.962;5.974;2022-07-10T04:06:20;8.90;;;1.70;;
59756;SDS011;45631;51.962;5.974;2022-07-10T04:08:48;9.15;;;1.75;;
59756;SDS011;45631;51.962;5.974;2022-07-10T04:11:16;9.90;;;1.73;;
59756;SDS011;45631;51.962;5.974;2022-07-10T04:13:44;11.57;;;2.20;;
59756;SDS011;45631;51.962;5.974;2022-07-10T04:16:14;8.15;;;1.85;;
59756;SDS011;45631;51.962;5.974;2022-07-10T04:18:42;7.53;;;1.60;;
59756;SDS011;45631;51.962;5.974;2022-07-10T04:21:10;9.50;;;1.50;;
59756;SDS011;45631;51.962;5.974;2022-07-10T04:23:38;8.38;;;1.65;;
59756;SDS011;45631;51.962;5.974;2022-07-10T04:26:06;7.00;;;1.35;;
59756;SDS011;45631;51.962;5.974;2022-07-10T04:28:34;9.52;;;2.28;;
59756;SDS011;45631;51.962;5.974;2022-07-10T04:31:02;11.07;;;1.40;;
59756;SDS011;45631;51.962;5.974;2022-07-10T04:33:32;6.13;;;1.65;;
59756;SDS011;45631;51.962;5.974;2022-07-10T04:36:00;6.20;;;1.67;;
59756;SDS011;45631;51.962;5.974;2022-07-10T04:38:28;8.02;;;1.80;;
59756;SDS011;45631;51.962;5.974;2022-07-10T04:40:58;6.75;;;1.60;;
59756;SDS011;45631;51.962;5.974;2022-07-10T04:43:26;8.02;;;1.55;;
59756;SDS011;45631;51.962;5.974;2022-07-10T04:45:54;9.73;;;1.55;;
59756;SDS011;45631;51.962;5.974;2022-07-10T04:48:22;6.78;;;1.75;;
59756;SDS011;45631;51.962;5.974;2022-07-10T04:50:51;9.75;;;1.73;;
59756;SDS011;45631;51.962;5.974;2022-07-10T04:53:19;9.90;;;1.67;;
59756;SDS011;45631;51.962;5.974;2022-07-10T04:55:47;10.40;;;1.85;;
59756;SDS011;45631;51.962;5.974;2022-07-10T04:58:15;6.28;;;1.40;;
59756;SDS011;45631;51.962;5.974;2022-07-10T05:00:43;8.80;;;2.08;;
59756;SDS011;45631;51.962;5.974;2022-07-10T05:03:11;5.32;;;1.30;;
59756;SDS011;45631;51.962;5.974;2022-07-10T05:05:42;9.48;;;1.58;;
59756;SDS011;45631;51.962;5.974;2022-07-10T05:08:12;7.72;;;1.55;;
59756;SDS011;45631;51.962;5.974;2022-07-10T05:10:40;8.43;;;1.85;;
59756;SDS011;45631;51.962;5.974;2022-07-10T05:13:08;7.88;;;1.30;;
59756;SDS011;45631;51.962;5.974;2022-07-10T05:15:37;5.32;;;1.40;;
59756;SDS011;45631;51.962;5.974;2022-07-10T05:18:05;5.93;;;1.48;;
59756;SDS011;45631;51.962;5.974;2022-07-10T05:20:34;6.72;;;1.90;;
59756;SDS011;45631;51.962;5.974;2022-07-10T05:23:03;6.35;;;1.38;;
59756;SDS011;45631;51.962;5.974;2022-07-10T05:25:32;9.13;;;1.63;;
59756;SDS011;45631;51.962;5.974;2022-07-10T05:28:00;7.43;;;1.75;;
59756;SDS011;45631;51.962;5.974;2022-07-10T05:30:28;8.88;;;1.40;;
59756;SDS011;45631;51.962;5.974;2022-07-10T05:32:56;7.65;;;1.33;;
59756;SDS011;45631;51.962;5.974;2022-07-10T05:35:25;7.95;;;1.48;;
59756;SDS011;45631;51.962;5.974;2022-07-10T05:37:53;8.48;;;1.88;;
59756;SDS011;45631;51.962;5.974;2022-07-10T05:40:21;8.18;;;1.90;;
59756;SDS011;45631;51.962;5.974;2022-07-10T05:42:50;6.90;;;1.70;;
59756;SDS011;45631;51.962;5.974;2022-07-10T05:45:19;10.18;;;1.48;;
59756;SDS011;45631;51.962;5.974;2022-07-10T05:47:47;11.50;;;1.80;;
59756;SDS011;45631;51.962;5.974;2022-07-10T05:50:15;8.75;;;2.15;;
59756;SDS011;45631;51.962;5.974;2022-07-10T05:52:43;7.55;;;1.45;;
59756;SDS011;45631;51.962;5.974;2022-07-10T05:55:11;9.93;;;1.75;;
59756;SDS011;45631;51.962;5.974;2022-07-10T05:57:39;10.63;;;1.70;;
59756;SDS011;45631;51.962;5.974;2022-07-10T06:00:09;5.32;;;1.50;;
59756;SDS011;45631;51.962;5.974;2022-07-10T06:02:37;10.98;;;2.22;;
59756;SDS011;45631;51.962;5.974;2022-07-10T06:05:06;8.07;;;1.85;;
59756;SDS011;45631;51.962;5.974;2022-07-10T06:07:35;4.13;;;1.30;;
59756;SDS011;45631;51.962;5.974;2022-07-10T06:10:03;5.80;;;1.23;;
59756;SDS011;45631;51.962;5.974;2022-07-10T06:12:32;5.45;;;1.27;;
59756;SDS011;45631;51.962;5.974;2022-07-10T06:15:00;6.95;;;1.60;;
59756;SDS011;45631;51.962;5.974;2022-07-10T06:17:30;5.95;;;1.45;;
59756;SDS011;45631;51.962;5.974;2022-07-10T06:19:58;7.78;;;1.98;;
59756;SDS011;45631;51.962;5.974;2022-07-10T06:22:26;8.30;;;1.60;;
59756;SDS011;45631;51.962;5.974;2022-07-10T06:25:00;7.60;;;1.50;;
59756;SDS011;45631;51.962;5.974;2022-07-10T06:27:31;9.27;;;1.90;;
59756;SDS011;45631;51.962;5.974;2022-07-10T06:29:59;8.05;;;1.60;;
59756;SDS011;45631;51.962;5.974;2022-07-10T06:32:27;7.60;;;1.40;;
59756;SDS011;45631;51.962;5.974;2022-07-10T06:34:57;8.20;;;2.22;;
59756;SDS011;45631;51.962;5.974;2022-07-10T06:37:25;9.65;;;1.67;;
59756;SDS011;45631;51.962;5.974;2022-07-10T06:39:53;8.27;;;1.65;;
59756;SDS011;45631;51.962;5.974;2022-07-10T06:42:21;7.20;;;1.58;;
59756;SDS011;45631;51.962;5.974;2022-07-10T06:44:49;7.78;;;2.00;;
59756;SDS011;45631;51.962;5.974;2022-07-10T06:47:18;6.60;;;1.80;;
59756;SDS011;45631;51.962;5.974;2022-07-10T06:50:06;8.32;;;1.88;;
59756;SDS011;45631;51.962;5.974;2022-07-10T06:52:35;9.10;;;2.40;;
59756;SDS011;45631;51.962;5.974;2022-07-10T06:55:04;8.30;;;1.77;;
59756;SDS011;45631;51.962;5.974;2022-07-10T06:57:33;7.47;;;1.90;;
59756;SDS011;45631;51.962;5.974;2022-07-10T07:00:02;8.82;;;2.08;;
59756;SDS011;45631;51.962;5.974;2022-07-10T07:02:30;8.07;;;2.15;;
59756;SDS011;45631;51.962;5.974;2022-07-10T07:04:58;14.93;;;2.42;;
59756;SDS011;45631;51.962;5.974;2022-07-10T07:07:28;6.30;;;1.70;;
59756;SDS011;45631;51.962;5.974;2022-07-10T07:09:56;9.27;;;2.30;;
59756;SDS011;45631;51.962;5.974;2022-07-10T07:12:24;9.43;;;2.50;;
59756;SDS011;45631;51.962;5.974;2022-07-10T07:14:52;8.27;;;2.63;;
59756;SDS011;45631;51.962;5.974;2022-07-10T07:17:20;11.02;;;2.50;;
59756;SDS011;45631;51.962;5.974;2022-07-10T07:19:52;9.25;;;2.22;;
59756;SDS011;45631;51.962;5.974;2022-07-10T07:22:42;9.95;;;2.10;;
59756;SDS011;45631;51.962;5.974;2022-07-10T07:25:28;12.40;;;2.22;;
59756;SDS011;45631;51.962;5.974;2022-07-10T07:27:56;7.43;;;1.90;;
59756;SDS011;45631;51.962;5.974;2022-07-10T07:30:24;7.53;;;2.17;;
59756;SDS011;45631;51.962;5.974;2022-07-10T07:32:52;7.55;;;2.13;;
59756;SDS011;45631;51.962;5.974;2022-07-10T07:35:20;9.27;;;2.10;;
59756;SDS011;45631;51.962;5.974;2022-07-10T07:37:50;8.38;;;2.15;;
59756;SDS011;45631;51.962;5.974;2022-07-10T07:40:20;7.22;;;2.08;;
59756;SDS011;45631;51.962;5.974;2022-07-10T07:42:49;7.80;;;1.90;;
59756;SDS011;45631;51.962;5.974;2022-07-10T07:45:18;6.38;;;1.92;;
59756;SDS011;45631;51.962;5.974;2022-07-10T07:47:47;6.75;;;2.30;;
59756;SDS011;45631;51.962;5.974;2022-07-10T07:50:16;8.75;;;2.75;;
59756;SDS011;45631;51.962;5.974;2022-07-10T07:52:45;6.53;;;2.50;;
59756;SDS011;45631;51.962;5.974;2022-07-10T07:55:15;9.30;;;2.55;;
59756;SDS011;45631;51.962;5.974;2022-07-10T07:57:45;9.70;;;2.65;;
59756;SDS011;45631;51.962;5.974;2022-07-10T08:00:14;9.02;;;2.33;;
59756;SDS011;45631;51.962;5.974;2022-07-10T08:02:44;8.35;;;2.17;;
59756;SDS011;45631;51.962;5.974;2022-07-10T08:05:12;7.93;;;2.30;;
59756;SDS011;45631;51.962;5.974;2022-07-10T08:07:41;6.50;;;2.25;;
59756;SDS011;45631;51.962;5.974;2022-07-10T08:10:11;10.93;;;2.50;;
59756;SDS011;45631;51.962;5.974;2022-07-10T08:12:43;6.00;;;1.95;;
59756;SDS011;45631;51.962;5.974;2022-07-10T08:15:16;10.15;;;2.25;;
59756;SDS011;45631;51.962;5.974;2022-07-10T08:17:46;8.30;;;2.28;;
59756;SDS011;45631;51.962;5.974;2022-07-10T08:20:16;8.77;;;3.05;;
59756;SDS011;45631;51.962;5.974;2022-07-10T08:22:44;7.82;;;2.45;;
59756;SDS011;45631;51.962;5.974;2022-07-10T08:25:13;8.45;;;2.45;;
59756;SDS011;45631;51.962;5.974;2022-07-10T08:27:41;6.32;;;2.42;;
59756;SDS011;45631;51.962;5.974;2022-07-10T08:30:11;7.88;;;2.35;;
59756;SDS011;45631;51.962;5.974;2022-07-10T08:32:40;8.95;;;2.20;;
59756;SDS011;45631;51.962;5.974;2022-07-10T08:35:08;9.57;;;2.35;;
59756;SDS011;45631;51.962;5.974;2022-07-10T08:37:38;11.35;;;2.83;;
59756;SDS011;45631;51.962;5.974;2022-07-10T08:40:07;13.73;;;2.78;;
59756;SDS011;45631;51.962;5.974;2022-07-10T08:42:37;8.50;;;2.55;;
59756;SDS011;45631;51.962;5.974;2022-07-10T08:45:05;10.18;;;2.35;;
59756;SDS011;45631;51.962;5.974;2022-07-10T08:47:36;9.10;;;2.60;;
59756;SDS011;45631;51.962;5.974;2022-07-10T08:50:10;6.50;;;1.98;;
59756;SDS011;45631;51.962;5.974;2022-07-10T08:52:47;8.27;;;2.13;;
59756;SDS011;45631;51.962;5.974;2022-07-10T08:55:23;9.57;;;2.20;;
59756;SDS011;45631;51.962;5.974;2022-07-10T08:57:53;10.32;;;2.75;;
59756;SDS011;45631;51.962;5.974;2022-07-10T09:00:25;11.52;;;2.20;;
59756;SDS011;45631;51.962;5.974;2022-07-10T09:02:54;8.75;;;2.05;;
59756;SDS011;45631;51.962;5.974;2022-07-10T09:05:23;7.63;;;2.10;;
59756;SDS011;45631;51.962;5.974;2022-07-10T09:07:52;7.80;;;2.20;;
59756;SDS011;45631;51.962;5.974;2022-07-10T09:10:21;5.60;;;2.10;;
59756;SDS011;45631;51.962;5.974;2022-07-10T09:12:53;12.18;;;2.45;;
59756;SDS011;45631;51.962;5.974;2022-07-10T09:15:23;7.53;;;1.95;;
59756;SDS011;45631;51.962;5.974;2022-07-10T09:17:52;8.27;;;2.55;;
59756;SDS011;45631;51.962;5.974;2022-07-10T09:20:30;4.95;;;1.77;;
59756;SDS011;45631;51.962;5.974;2022-07-10T09:23:00;9.73;;;2.30;;
59756;SDS011;45631;51.962;5.974;2022-07-10T09:25:41;9.38;;;1.65;;
59756;SDS011;45631;51.962;5.974;2022-07-10T09:28:09;6.85;;;1.80;;
59756;SDS011;45631;51.962;5.974;2022-07-10T09:30:38;5.35;;;1.80;;
59756;SDS011;45631;51.962;5.974;2022-07-10T09:33:14;4.63;;;1.50;;
59756;SDS011;45631;51.962;5.974;2022-07-10T09:36:02;9.27;;;2.00;;
59756;SDS011;45631;51.962;5.974;2022-07-10T09:38:48;4.43;;;1.75;;
59756;SDS011;45631;51.962;5.974;2022-07-10T09:41:18;6.38;;;1.50;;
59756;SDS011;45631;51.962;5.974;2022-07-10T09:43:48;5.10;;;1.60;;
59756;SDS011;45631;51.962;5.974;2022-07-10T09:46:18;7.18;;;1.67;;
59756;SDS011;45631;51.962;5.974;2022-07-10T09:48:47;6.53;;;1.67;;
59756;SDS011;45631;51.962;5.974;2022-07-10T09:51:17;7.45;;;1.40;;
59756;SDS011;45631;51.962;5.974;2022-07-10T09:53:46;5.40;;;1.40;;
59756;SDS011;45631;51.962;5.974;2022-07-10T09:56:14;5.57;;;1.50;;
59756;SDS011;45631;51.962;5.974;2022-07-10T09:58:42;5.53;;;1.50;;
59756;SDS011;45631;51.962;5.974;2022-07-10T10:01:12;4.07;;;1.20;;
59756;SDS011;45631;51.962;5.974;2022-07-10T10:03:42;7.00;;;1.30;;
59756;SDS011;45631;51.962;5.974;2022-07-10T10:06:14;6.50;;;1.30;;
59756;SDS011;45631;51.962;5.974;2022-07-10T10:08:47;4.82;;;1.27;;
59756;SDS011;45631;51.962;5.974;2022-07-10T10:11:23;3.95;;;1.30;;
59756;SDS011;45631;51.962;5.974;2022-07-10T10:13:54;3.93;;;1.30;;
59756;SDS011;45631;51.962;5.974;2022-07-10T10:16:23;3.65;;;1.35;;
59756;SDS011;45631;51.962;5.974;2022-07-10T10:19:02;6.63;;;1.85;;
59756;SDS011;45631;51.962;5.974;2022-07-10T10:21:48;2.92;;;1.30;;
59756;SDS011;45631;51.962;5.974;2022-07-10T10:24:18;6.78;;;1.70;;
59756;SDS011;45631;51.962;5.974;2022-07-10T10:26:46;5.40;;;1.60;;
59756;SDS011;45631;51.962;5.974;2022-07-10T10:29:14;5.68;;;1.48;;
59756;SDS011;45631;51.962;5.974;2022-07-10T10:31:42;5.65;;;1.30;;
59756;SDS011;45631;51.962;5.974;2022-07-10T10:34:11;5.25;;;1.20;;
59756;SDS011;45631;51.962;5.974;2022-07-10T10:36:43;4.35;;;1.20;;
59756;SDS011;45631;51.962;5.974;2022-07-10T10:39:13;3.55;;;1.35;;
59756;SDS011;45631;51.962;5.974;2022-07-10T10:41:47;6.25;;;1.27;;
59756;SDS011;45631;51.962;5.974;2022-07-10T10:44:23;4.18;;;1.00;;
59756;SDS011;45631;51.962;5.974;2022-07-10T10:47:04;3.40;;;1.10;;
59756;SDS011;45631;51.962;5.974;2022-07-10T10:49:50;4.72;;;1.40;;
59756;SDS011;45631;51.962;5.974;2022-07-10T10:52:19;3.45;;;1.30;;
59756;SDS011;45631;51.962;5.974;2022-07-10T10:57:40;3.90;;;1.20;;
59756;SDS011;45631;51.962;5.974;2022-07-10T11:00:30;4.53;;;1.20;;
59756;SDS011;45631;51.962;5.974;2022-07-10T11:03:14;3.80;;;1.25;;
59756;SDS011;45631;51.962;5.974;2022-07-10T11:05:43;3.15;;;1.17;;
59756;SDS011;45631;51.962;5.974;2022-07-10T11:08:12;5.22;;;1.38;;
59756;SDS011;45631;51.962;5.974;2022-07-10T11:10:41;4.88;;;1.05;;
59756;SDS011;45631;51.962;5.974;2022-07-10T11:13:16;2.75;;;1.10;;
59756;SDS011;45631;51.962;5.974;2022-07-10T11:15:45;2.65;;;1.08;;
59756;SDS011;45631;51.962;5.974;2022-07-10T11:18:16;3.08;;;0.93;;
59756;SDS011;45631;51.962;5.974;2022-07-10T11:20:46;4.95;;;1.25;;
59756;SDS011;45631;51.962;5.974;2022-07-10T11:23:17;5.50;;;1.25;;
59756;SDS011;45631;51.962;5.974;2022-07-10T11:26:11;3.28;;;1.20;;
59756;SDS011;45631;51.962;5.974;2022-07-10T11:28:49;3.92;;;1.30;;
59756;SDS011;45631;51.962;5.974;2022-07-10T11:31:18;2.33;;;1.00;;
59756;SDS011;45631;51.962;5.974;2022-07-10T11:33:47;3.88;;;1.30;;
59756;SDS011;45631;51.962;5.974;2022-07-10T11:36:18;2.55;;;1.00;;
59756;SDS011;45631;51.962;5.974;2022-07-10T11:38:48;1.75;;;0.90;;
59756;SDS011;45631;51.962;5.974;2022-07-10T11:41:24;2.67;;;1.20;;
59756;SDS011;45631;51.962;5.974;2022-07-10T11:43:55;3.30;;;1.08;;
59756;SDS011;45631;51.962;5.974;2022-07-10T11:46:24;2.92;;;1.13;;
59756;SDS011;45631;51.962;5.974;2022-07-10T11:48:55;4.60;;;1.20;;
59756;SDS011;45631;51.962;5.974;2022-07-10T11:51:27;5.05;;;1.30;;
59756;SDS011;45631;51.962;5.974;2022-07-10T11:53:57;6.28;;;1.48;;
59756;SDS011;45631;51.962;5.974;2022-07-10T11:56:29;5.15;;;1.30;;
59756;SDS011;45631;51.962;5.974;2022-07-10T11:59:01;3.80;;;1.00;;
59756;SDS011;45631;51.962;5.974;2022-07-10T12:01:30;6.80;;;1.40;;
59756;SDS011;45631;51.962;5.974;2022-07-10T12:04:01;5.32;;;1.58;;
59756;SDS011;45631;51.962;5.974;2022-07-10T12:06:31;3.08;;;1.20;;
59756;SDS011;45631;51.962;5.974;2022-07-10T12:09:01;3.65;;;1.38;;
59756;SDS011;45631;51.962;5.974;2022-07-10T12:11:30;5.30;;;1.33;;
59756;SDS011;45631;51.962;5.974;2022-07-10T12:14:10;3.97;;;1.63;;
59756;SDS011;45631;51.962;5.974;2022-07-10T12:16:41;4.33;;;1.43;;
59756;SDS011;45631;51.962;5.974;2022-07-10T12:19:11;6.35;;;1.30;;
59756;SDS011;45631;51.962;5.974;2022-07-10T12:21:41;3.47;;;1.40;;
59756;SDS011;45631;51.962;5.974;2022-07-10T12:24:10;3.80;;;1.10;;
59756;SDS011;45631;51.962;5.974;2022-07-10T12:26:40;4.82;;;1.25;;
59756;SDS011;45631;51.962;5.974;2022-07-10T12:29:18;4.05;;;1.20;;
59756;SDS011;45631;51.962;5.974;2022-07-10T12:31:48;5.15;;;1.50;;
59756;SDS011;45631;51.962;5.974;2022-07-10T12:34:17;4.40;;;1.20;;
59756;SDS011;45631;51.962;5.974;2022-07-10T12:36:46;4.95;;;1.10;;
59756;SDS011;45631;51.962;5.974;2022-07-10T12:39:16;3.85;;;1.33;;
59756;SDS011;45631;51.962;5.974;2022-07-10T12:41:58;4.18;;;1.10;;
59756;SDS011;45631;51.962;5.974;2022-07-10T12:44:34;3.40;;;1.05;;
59756;SDS011;45631;51.962;5.974;2022-07-10T12:47:05;3.55;;;1.20;;
59756;SDS011;45631;51.962;5.974;2022-07-10T12:49:49;4.77;;;1.13;;
59756;SDS011;45631;51.962;5.974;2022-07-10T12:52:19;2.95;;;1.00;;
59756;SDS011;45631;51.962;5.974;2022-07-10T12:55:07;4.05;;;1.33;;
59756;SDS011;45631;51.962;5.974;2022-07-10T12:57:46;3.60;;;1.20;;
59756;SDS011;45631;51.962;5.974;2022-07-10T13:00:18;4.38;;;1.10;;
59756;SDS011;45631;51.962;5.974;2022-07-10T13:02:48;3.53;;;1.10;;
59756;SDS011;45631;51.962;5.974;2022-07-10T13:05:28;2.00;;;1.00;;
59756;SDS011;45631;51.962;5.974;2022-07-10T13:08:05;5.47;;;1.00;;
59756;SDS011;45631;51.962;5.974;2022-07-10T13:10:35;3.60;;;1.02;;
59756;SDS011;45631;51.962;5.974;2022-07-10T13:13:03;4.22;;;1.05;;
59756;SDS011;45631;51.962;5.974;2022-07-10T13:15:32;3.78;;;1.00;;
59756;SDS011;45631;51.962;5.974;2022-07-10T13:18:06;5.57;;;1.13;;
59756;SDS011;45631;51.962;5.974;2022-07-10T13:20:35;1.83;;;0.90;;
59756;SDS011;45631;51.962;5.974;2022-07-10T13:23:03;4.18;;;1.10;;
59756;SDS011;45631;51.962;5.974;2022-07-10T13:25:31;3.53;;;1.00;;
59756;SDS011;45631;51.962;5.974;2022-07-10T13:28:00;4.60;;;1.10;;
59756;SDS011;45631;51.962;5.974;2022-07-10T13:30:29;4.03;;;1.20;;
59756;SDS011;45631;51.962;5.974;2022-07-10T13:32:59;2.83;;;1.10;;
59756;SDS011;45631;51.962;5.974;2022-07-10T13:35:27;4.07;;;1.10;;
59756;SDS011;45631;51.962;5.974;2022-07-10T13:37:57;3.03;;;1.08;;
59756;SDS011;45631;51.962;5.974;2022-07-10T13:40:27;3.50;;;1.20;;
59756;SDS011;45631;51.962;5.974;2022-07-10T13:42:55;3.42;;;1.20;;
59756;SDS011;45631;51.962;5.974;2022-07-10T13:45:23;5.13;;;1.10;;
59756;SDS011;45631;51.962;5.974;2022-07-10T13:47:56;6.05;;;1.38;;
59756;SDS011;45631;51.962;5.974;2022-07-10T13:50:25;4.38;;;1.40;;
59756;SDS011;45631;51.962;5.974;2022-07-10T13:52:53;3.20;;;1.20;;
59756;SDS011;45631;51.962;5.974;2022-07-10T13:55:21;3.97;;;1.20;;
59756;SDS011;45631;51.962;5.974;2022-07-10T13:57:51;3.05;;;1.13;;
59756;SDS011;45631;51.962;5.974;2022-07-10T14:00:19;5.60;;;1.33;;
59756;SDS011;45631;51.962;5.974;2022-07-10T14:02:47;2.90;;;1.13;;
59756;SDS011;45631;51.962;5.974;2022-07-10T14:05:15;4.55;;;1.30;;
59756;SDS011;45631;51.962;5.974;2022-07-10T14:07:44;3.67;;;1.08;;
59756;SDS011;45631;51.962;5.974;2022-07-10T14:10:13;3.58;;;1.23;;
59756;SDS011;45631;51.962;5.974;2022-07-10T14:12:41;4.53;;;1.15;;
59756;SDS011;45631;51.962;5.974;2022-07-10T14:15:10;5.05;;;1.38;;
59756;SDS011;45631;51.962;5.974;2022-07-10T14:17:38;3.85;;;1.10;;
59756;SDS011;45631;51.962;5.974;2022-07-10T14:20:07;3.78;;;1.30;;
59756;SDS011;45631;51.962;5.974;2022-07-10T14:22:36;3.95;;;1.20;;
59756;SDS011;45631;51.962;5.974;2022-07-10T14:25:06;6.30;;;1.40;;
59756;SDS011;45631;51.962;5.974;2022-07-10T14:27:35;2.67;;;1.10;;
59756;SDS011;45631;51.962;5.974;2022-07-10T14:30:04;2.90;;;0.95;;
59756;SDS011;45631;51.962;5.974;2022-07-10T14:32:33;5.55;;;1.17;;
59756;SDS011;45631;51.962;5.974;2022-07-10T14:35:01;4.60;;;1.35;;
59756;SDS011;45631;51.962;5.974;2022-07-10T14:37:29;5.15;;;1.60;;
59756;SDS011;45631;51.962;5.974;2022-07-10T14:39:57;4.38;;;1.20;;
59756;SDS011;45631;51.962;5.974;2022-07-10T14:42:26;4.70;;;1.30;;
59756;SDS011;45631;51.962;5.974;2022-07-10T14:44:54;4.15;;;1.48;;
59756;SDS011;45631;51.962;5.974;2022-07-10T14:47:22;3.60;;;1.10;;
59756;SDS011;45631;51.962;5.974;2022-07-10T14:49:51;2.65;;;1.25;;
59756;SDS011;45631;51.962;5.974;2022-07-10T14:52:19;3.25;;;1.20;;
59756;SDS011;45631;51.962;5.974;2022-07-10T14:54:48;3.95;;;1.10;;
59756;SDS011;45631;51.962;5.974;2022-07-10T14:57:17;2.90;;;1.20;;
59756;SDS011;45631;51.962;5.974;2022-07-10T14:59:46;4.78;;;1.17;;
59756;SDS011;45631;51.962;5.974;2022-07-10T15:02:14;4.65;;;1.20;;
59756;SDS011;45631;51.962;5.974;2022-07-10T15:04:43;3.45;;;1.33;;
59756;SDS011;45631;51.962;5.974;2022-07-10T15:07:11;6.15;;;1.63;;